sensor_id;sensor_type;location;lat;lon;timestamp;temperature;humidity
27803;DHT22;15182;48.174;11.562;2023-02-19T00:02:10;15.50;86.30
27803;DHT22;15182;48.174;11.562;2023-02-19T00:04:41;15.50;86.50
27803;DHT22;15182;48.174;11.562;2023-02-19T00:07:12;15.50;86.60
27803;DHT22;15182;48.174;11.562;2023-02-19T00:09:44;15.40;86.50
27803;DHT22;15182;48.174;11.562;2023-02-19T00:12:15;15.50;86.70
27803;DHT22;15182;48.174;11.562;2023-02-19T00:14:46;15.40;86.60
27803;DHT22;15182;48.174;11.562;2023-02-19T00:17:19;15.40;86.70
27803;DHT22;15182;48.174;11.562;2023-02-19T00:19:57;15.40;86.80
27803;DHT22;15182;48.174;11.562;2023-02-19T00:22:30;15.40;86.90
27803;DHT22;15182;48.174;11.562;2023-02-19T00:25:01;15.40;87.00
27803;DHT22;15182;48.174;11.562;2023-02-19T00:27:35;15.40;86.90
27803;DHT22;15182;48.174;11.562;2023-02-19T00:30:05;15.40;87.10
27803;DHT22;15182;48.174;11.562;2023-02-19T00:32:38;15.30;87.10
27803;DHT22;15182;48.174;11.562;2023-02-19T00:35:12;15.40;87.30
27803;DHT22;15182;48.174;11.562;2023-02-19T00:37:43;15.40;87.20
27803;DHT22;15182;48.174;11.562;2023-02-19T00:40:15;15.40;87.30
27803;DHT22;15182;48.174;11.562;2023-02-19T00:42:46;15.40;87.20
27803;DHT22;15182;48.174;11.562;2023-02-19T00:45:17;15.30;87.20
27803;DHT22;15182;48.174;11.562;2023-02-19T00:47:50;15.30;87.30
27803;DHT22;15182;48.174;11.562;2023-02-19T00:50:23;15.30;87.30
27803;DHT22;15182;48.174;11.562;2023-02-19T00:52:54;15.30;87.30
27803;DHT22;15182;48.174;11.562;2023-02-19T00:55:25;15.30;87.40
27803;DHT22;15182;48.174;11.562;2023-02-19T00:57:56;15.30;87.40
27803;DHT22;15182;48.174;11.562;2023-02-19T01:00:30;15.30;87.50
27803;DHT22;15182;48.174;11.562;2023-02-19T01:03:02;15.30;87.50
27803;DHT22;15182;48.174;11.562;2023-02-19T01:05:35;15.30;87.50
27803;DHT22;15182;48.174;11.562;2023-02-19T01:08:07;15.30;87.50
27803;DHT22;15182;48.174;11.562;2023-02-19T01:10:40;15.30;87.50
27803;DHT22;15182;48.174;11.562;2023-02-19T01:13:11;15.20;87.50
27803;DHT22;15182;48.174;11.562;2023-02-19T01:15:44;15.20;87.60
27803;DHT22;15182;48.174;11.562;2023-02-19T01:18:17;15.30;87.70
27803;DHT22;15182;48.174;11.562;2023-02-19T01:20:49;15.20;87.60
27803;DHT22;15182;48.174;11.562;2023-02-19T01:23:20;15.20;87.70
27803;DHT22;15182;48.174;11.562;2023-02-19T01:25:51;15.20;87.70
27803;DHT22;15182;48.174;11.562;2023-02-19T01:28:23;15.20;87.60
27803;DHT22;15182;48.174;11.562;2023-02-19T01:30:54;15.20;87.70
27803;DHT22;15182;48.174;11.562;2023-02-19T01:33:29;15.20;87.90
27803;DHT22;15182;48.174;11.562;2023-02-19T01:36:01;15.20;88.10
27803;DHT22;15182;48.174;11.562;2023-02-19T01:38:35;15.20;88.00
27803;DHT22;15182;48.174;11.562;2023-02-19T01:41:09;15.20;88.10
27803;DHT22;15182;48.174;11.562;2023-02-19T01:43:58;15.20;88.10
27803;DHT22;15182;48.174;11.562;2023-02-19T01:46:32;15.20;88.20
27803;DHT22;15182;48.174;11.562;2023-02-19T01:49:08;15.20;88.10
27803;DHT22;15182;48.174;11.562;2023-02-19T01:51:45;15.20;88.10
27803;DHT22;15182;48.174;11.562;2023-02-19T01:54:21;15.20;88.20
27803;DHT22;15182;48.174;11.562;2023-02-19T01:56:55;15.20;88.40
27803;DHT22;15182;48.174;11.562;2023-02-19T01:59:27;15.20;88.40
27803;DHT22;15182;48.174;11.562;2023-02-19T02:01:59;15.20;88.60
27803;DHT22;15182;48.174;11.562;2023-02-19T02:04:34;15.20;89.10
27803;DHT22;15182;48.174;11.562;2023-02-19T02:07:07;15.10;89.30
27803;DHT22;15182;48.174;11.562;2023-02-19T02:09:53;15.10;89.50
27803;DHT22;15182;48.174;11.562;2023-02-19T02:12:44;15.10;89.70
27803;DHT22;15182;48.174;11.562;2023-02-19T02:15:17;15.00;90.00
27803;DHT22;15182;48.174;11.562;2023-02-19T02:17:59;15.00;90.00
27803;DHT22;15182;48.174;11.562;2023-02-19T02:20:52;15.00;90.20
27803;DHT22;15182;48.174;11.562;2023-02-19T02:23:43;15.00;90.30
27803;DHT22;15182;48.174;11.562;2023-02-19T02:26:24;15.00;90.60
27803;DHT22;15182;48.174;11.562;2023-02-19T02:29:25;14.90;90.70
27803;DHT22;15182;48.174;11.562;2023-02-19T02:32:08;14.90;91.00
27803;DHT22;15182;48.174;11.562;2023-02-19T02:34:48;14.80;90.90
27803;DHT22;15182;48.174;11.562;2023-02-19T02:37:22;14.70;91.10
27803;DHT22;15182;48.174;11.562;2023-02-19T02:39:58;14.70;90.90
27803;DHT22;15182;48.174;11.562;2023-02-19T02:42:34;14.60;91.20
27803;DHT22;15182;48.174;11.562;2023-02-19T02:45:27;14.60;91.20
27803;DHT22;15182;48.174;11.562;2023-02-19T02:48:15;14.50;91.70
27803;DHT22;15182;48.174;11.562;2023-02-19T02:50:52;14.50;91.80
27803;DHT22;15182;48.174;11.562;2023-02-19T02:53:31;14.40;91.80
27803;DHT22;15182;48.174;11.562;2023-02-19T02:56:22;14.40;91.90
27803;DHT22;15182;48.174;11.562;2023-02-19T02:58:58;14.40;92.00
27803;DHT22;15182;48.174;11.562;2023-02-19T03:01:34;14.30;92.40
27803;DHT22;15182;48.174;11.562;2023-02-19T03:04:29;14.30;92.40
27803;DHT22;15182;48.174;11.562;2023-02-19T03:07:06;14.20;92.60
27803;DHT22;15182;48.174;11.562;2023-02-19T03:09:42;14.10;92.70
27803;DHT22;15182;48.174;11.562;2023-02-19T03:12:16;14.10;92.80
27803;DHT22;15182;48.174;11.562;2023-02-19T03:15:09;14.00;92.80
27803;DHT22;15182;48.174;11.562;2023-02-19T03:18:02;14.00;92.90
27803;DHT22;15182;48.174;11.562;2023-02-19T03:21:08;13.80;93.00
27803;DHT22;15182;48.174;11.562;2023-02-19T03:23:41;13.80;93.10
27803;DHT22;15182;48.174;11.562;2023-02-19T03:26:34;13.80;93.20
27803;DHT22;15182;48.174;11.562;2023-02-19T03:29:07;13.70;93.40
27803;DHT22;15182;48.174;11.562;2023-02-19T03:32:00;13.70;93.40
27803;DHT22;15182;48.174;11.562;2023-02-19T03:34:37;13.60;93.70
27803;DHT22;15182;48.174;11.562;2023-02-19T03:37:17;13.60;93.80
27803;DHT22;15182;48.174;11.562;2023-02-19T03:39:56;13.60;94.00
27803;DHT22;15182;48.174;11.562;2023-02-19T03:42:34;13.60;94.00
27803;DHT22;15182;48.174;11.562;2023-02-19T03:45:21;13.50;94.20
27803;DHT22;15182;48.174;11.562;2023-02-19T03:48:06;13.50;94.20
27803;DHT22;15182;48.174;11.562;2023-02-19T03:50:50;13.50;94.40
27803;DHT22;15182;48.174;11.562;2023-02-19T03:53:31;13.40;94.40
27803;DHT22;15182;48.174;11.562;2023-02-19T03:56:09;13.50;94.50
27803;DHT22;15182;48.174;11.562;2023-02-19T03:58:47;13.50;94.40
27803;DHT22;15182;48.174;11.562;2023-02-19T04:01:23;13.40;94.50
27803;DHT22;15182;48.174;11.562;2023-02-19T04:04:05;13.40;94.60
27803;DHT22;15182;48.174;11.562;2023-02-19T04:06:43;13.40;94.70
27803;DHT22;15182;48.174;11.562;2023-02-19T04:09:22;13.40;94.60
27803;DHT22;15182;48.174;11.562;2023-02-19T04:12:06;13.30;94.60
27803;DHT22;15182;48.174;11.562;2023-02-19T04:14:41;13.30;94.60
27803;DHT22;15182;48.174;11.562;2023-02-19T04:17:19;13.30;94.70
27803;DHT22;15182;48.174;11.562;2023-02-19T04:19:57;13.30;94.90
27803;DHT22;15182;48.174;11.562;2023-02-19T04:22:30;13.20;94.80
27803;DHT22;15182;48.174;11.562;2023-02-19T04:25:03;13.20;94.70
27803;DHT22;15182;48.174;11.562;2023-02-19T04:27:36;13.20;94.90
27803;DHT22;15182;48.174;11.562;2023-02-19T04:30:13;13.20;94.90
27803;DHT22;15182;48.174;11.562;2023-02-19T04:32:44;13.20;95.10
27803;DHT22;15182;48.174;11.562;2023-02-19T04:35:16;13.20;95.00
27803;DHT22;15182;48.174;11.562;2023-02-19T04:37:47;13.10;94.90
27803;DHT22;15182;48.174;11.562;2023-02-19T04:40:20;13.20;94.90
27803;DHT22;15182;48.174;11.562;2023-02-19T04:42:51;13.10;95.10
27803;DHT22;15182;48.174;11.562;2023-02-19T04:45:23;13.10;95.00
27803;DHT22;15182;48.174;11.562;2023-02-19T04:47:55;13.20;95.00
27803;DHT22;15182;48.174;11.562;2023-02-19T04:50:27;13.20;95.10
27803;DHT22;15182;48.174;11.562;2023-02-19T04:53:00;13.10;95.00
27803;DHT22;15182;48.174;11.562;2023-02-19T04:55:34;13.10;95.10
27803;DHT22;15182;48.174;11.562;2023-02-19T04:58:06;13.10;95.10
27803;DHT22;15182;48.174;11.562;2023-02-19T05:00:37;13.10;95.10
27803;DHT22;15182;48.174;11.562;2023-02-19T05:03:10;13.10;95.00
27803;DHT22;15182;48.174;11.562;2023-02-19T05:05:42;13.10;95.10
27803;DHT22;15182;48.174;11.562;2023-02-19T05:08:15;13.00;95.00
27803;DHT22;15182;48.174;11.562;2023-02-19T05:10:47;13.00;95.20
27803;DHT22;15182;48.174;11.562;2023-02-19T05:13:18;13.00;95.20
27803;DHT22;15182;48.174;11.562;2023-02-19T05:15:58;13.10;95.10
27803;DHT22;15182;48.174;11.562;2023-02-19T05:18:31;13.10;95.30
27803;DHT22;15182;48.174;11.562;2023-02-19T05:21:04;13.00;95.10
27803;DHT22;15182;48.174;11.562;2023-02-19T05:23:36;13.10;95.20
27803;DHT22;15182;48.174;11.562;2023-02-19T05:26:11;13.00;95.20
27803;DHT22;15182;48.174;11.562;2023-02-19T05:28:45;13.10;95.30
27803;DHT22;15182;48.174;11.562;2023-02-19T05:31:18;13.00;95.20
27803;DHT22;15182;48.174;11.562;2023-02-19T05:33:51;13.00;95.30
27803;DHT22;15182;48.174;11.562;2023-02-19T05:36:26;13.10;95.30
27803;DHT22;15182;48.174;11.562;2023-02-19T05:39:03;13.00;95.30
27803;DHT22;15182;48.174;11.562;2023-02-19T05:41:37;13.00;95.50
27803;DHT22;15182;48.174;11.562;2023-02-19T05:44:12;13.10;95.40
27803;DHT22;15182;48.174;11.562;2023-02-19T05:46:43;13.00;95.40
27803;DHT22;15182;48.174;11.562;2023-02-19T05:49:16;13.00;95.30
27803;DHT22;15182;48.174;11.562;2023-02-19T05:51:51;13.10;95.40
27803;DHT22;15182;48.174;11.562;2023-02-19T05:54:22;13.00;95.40
27803;DHT22;15182;48.174;11.562;2023-02-19T05:56:57;13.10;95.30
27803;DHT22;15182;48.174;11.562;2023-02-19T05:59:28;13.10;95.30
27803;DHT22;15182;48.174;11.562;2023-02-19T06:02:00;13.10;95.20
27803;DHT22;15182;48.174;11.562;2023-02-19T06:04:31;13.10;95.30
27803;DHT22;15182;48.174;11.562;2023-02-19T06:07:02;13.10;95.30
27803;DHT22;15182;48.174;11.562;2023-02-19T06:09:33;13.20;95.30
27803;DHT22;15182;48.174;11.562;2023-02-19T06:12:07;13.20;95.20
27803;DHT22;15182;48.174;11.562;2023-02-19T06:14:38;13.20;95.30
27803;DHT22;15182;48.174;11.562;2023-02-19T06:17:12;13.20;95.20
27803;DHT22;15182;48.174;11.562;2023-02-19T06:19:43;13.20;95.30
27803;DHT22;15182;48.174;11.562;2023-02-19T06:22:17;13.20;95.20
27803;DHT22;15182;48.174;11.562;2023-02-19T06:24:48;13.20;95.30
27803;DHT22;15182;48.174;11.562;2023-02-19T06:27:21;13.20;95.20
27803;DHT22;15182;48.174;11.562;2023-02-19T06:29:52;13.20;95.20
27803;DHT22;15182;48.174;11.562;2023-02-19T06:32:26;13.20;95.10
27803;DHT22;15182;48.174;11.562;2023-02-19T06:34:57;13.20;95.20
27803;DHT22;15182;48.174;11.562;2023-02-19T06:37:28;13.20;95.10
27803;DHT22;15182;48.174;11.562;2023-02-19T06:39:59;13.30;95.20
27803;DHT22;15182;48.174;11.562;2023-02-19T06:42:33;13.20;95.10
27803;DHT22;15182;48.174;11.562;2023-02-19T06:45:05;13.20;95.10
27803;DHT22;15182;48.174;11.562;2023-02-19T06:47:37;13.20;95.10
27803;DHT22;15182;48.174;11.562;2023-02-19T06:50:09;13.20;95.10
27803;DHT22;15182;48.174;11.562;2023-02-19T06:52:40;13.20;95.10
27803;DHT22;15182;48.174;11.562;2023-02-19T06:55:11;13.20;95.10
27803;DHT22;15182;48.174;11.562;2023-02-19T06:57:44;13.20;95.10
27803;DHT22;15182;48.174;11.562;2023-02-19T07:00:18;13.20;95.20
27803;DHT22;15182;48.174;11.562;2023-02-19T07:02:49;13.20;95.20
27803;DHT22;15182;48.174;11.562;2023-02-19T07:05:25;13.30;95.20
27803;DHT22;15182;48.174;11.562;2023-02-19T07:07:56;13.30;95.20
27803;DHT22;15182;48.174;11.562;2023-02-19T07:10:29;13.30;95.20
27803;DHT22;15182;48.174;11.562;2023-02-19T07:13:02;13.30;95.20
27803;DHT22;15182;48.174;11.562;2023-02-19T07:15:33;13.30;95.20
27803;DHT22;15182;48.174;11.562;2023-02-19T07:18:04;13.30;95.20
27803;DHT22;15182;48.174;11.562;2023-02-19T07:20:37;13.30;95.20
27803;DHT22;15182;48.174;11.562;2023-02-19T07:23:08;13.30;95.60
27803;DHT22;15182;48.174;11.562;2023-02-19T07:25:40;13.40;95.30
27803;DHT22;15182;48.174;11.562;2023-02-19T07:28:12;13.40;95.30
27803;DHT22;15182;48.174;11.562;2023-02-19T07:30:44;13.40;95.30
27803;DHT22;15182;48.174;11.562;2023-02-19T07:33:15;13.40;95.20
27803;DHT22;15182;48.174;11.562;2023-02-19T07:35:48;13.50;95.30
27803;DHT22;15182;48.174;11.562;2023-02-19T07:38:23;13.40;95.30
27803;DHT22;15182;48.174;11.562;2023-02-19T07:40:55;13.50;95.50
27803;DHT22;15182;48.174;11.562;2023-02-19T07:43:30;13.40;95.40
27803;DHT22;15182;48.174;11.562;2023-02-19T07:46:03;13.40;95.40
27803;DHT22;15182;48.174;11.562;2023-02-19T07:48:35;13.50;95.40
27803;DHT22;15182;48.174;11.562;2023-02-19T07:51:12;13.50;95.40
27803;DHT22;15182;48.174;11.562;2023-02-19T07:53:46;13.50;95.50
27803;DHT22;15182;48.174;11.562;2023-02-19T07:56:19;13.50;95.40
27803;DHT22;15182;48.174;11.562;2023-02-19T07:58:52;13.50;95.50
27803;DHT22;15182;48.174;11.562;2023-02-19T08:01:25;13.50;95.50
27803;DHT22;15182;48.174;11.562;2023-02-19T08:04:12;13.50;95.50
27803;DHT22;15182;48.174;11.562;2023-02-19T08:06:43;13.50;95.50
27803;DHT22;15182;48.174;11.562;2023-02-19T08:09:14;13.50;95.60
27803;DHT22;15182;48.174;11.562;2023-02-19T08:11:46;13.50;95.50
27803;DHT22;15182;48.174;11.562;2023-02-19T08:14:37;13.50;95.50
27803;DHT22;15182;48.174;11.562;2023-02-19T08:17:08;13.60;95.60
27803;DHT22;15182;48.174;11.562;2023-02-19T08:19:40;13.60;95.60
27803;DHT22;15182;48.174;11.562;2023-02-19T08:22:11;13.60;95.50
27803;DHT22;15182;48.174;11.562;2023-02-19T08:24:44;13.60;95.60
27803;DHT22;15182;48.174;11.562;2023-02-19T08:27:15;13.60;95.60
27803;DHT22;15182;48.174;11.562;2023-02-19T08:29:47;13.60;95.50
27803;DHT22;15182;48.174;11.562;2023-02-19T08:32:19;13.70;95.50
27803;DHT22;15182;48.174;11.562;2023-02-19T08:34:50;13.70;95.50
27803;DHT22;15182;48.174;11.562;2023-02-19T08:37:21;13.70;95.40
27803;DHT22;15182;48.174;11.562;2023-02-19T08:39:53;13.70;95.40
27803;DHT22;15182;48.174;11.562;2023-02-19T08:42:25;13.70;95.40
27803;DHT22;15182;48.174;11.562;2023-02-19T08:44:57;13.70;95.30
27803;DHT22;15182;48.174;11.562;2023-02-19T08:47:31;13.70;95.30
27803;DHT22;15182;48.174;11.562;2023-02-19T08:50:06;13.70;95.10
27803;DHT22;15182;48.174;11.562;2023-02-19T08:52:39;13.80;95.00
27803;DHT22;15182;48.174;11.562;2023-02-19T08:55:11;13.70;94.90
27803;DHT22;15182;48.174;11.562;2023-02-19T08:57:44;13.70;94.80
27803;DHT22;15182;48.174;11.562;2023-02-19T09:00:17;13.80;95.20
27803;DHT22;15182;48.174;11.562;2023-02-19T09:02:49;13.80;94.80
27803;DHT22;15182;48.174;11.562;2023-02-19T09:05:21;13.80;94.70
27803;DHT22;15182;48.174;11.562;2023-02-19T09:07:52;13.80;94.60
27803;DHT22;15182;48.174;11.562;2023-02-19T09:10:23;13.80;94.50
27803;DHT22;15182;48.174;11.562;2023-02-19T09:12:55;13.80;94.30
27803;DHT22;15182;48.174;11.562;2023-02-19T09:15:28;13.80;94.10
27803;DHT22;15182;48.174;11.562;2023-02-19T09:18:00;13.80;94.00
27803;DHT22;15182;48.174;11.562;2023-02-19T09:20:33;13.80;94.00
27803;DHT22;15182;48.174;11.562;2023-02-19T09:23:04;13.80;94.00
27803;DHT22;15182;48.174;11.562;2023-02-19T09:25:37;13.80;94.00
27803;DHT22;15182;48.174;11.562;2023-02-19T09:28:08;13.80;94.00
27803;DHT22;15182;48.174;11.562;2023-02-19T09:30:41;13.80;94.00
27803;DHT22;15182;48.174;11.562;2023-02-19T09:33:12;13.70;93.40
27803;DHT22;15182;48.174;11.562;2023-02-19T09:35:46;13.70;93.20
27803;DHT22;15182;48.174;11.562;2023-02-19T09:38:17;13.80;93.30
27803;DHT22;15182;48.174;11.562;2023-02-19T09:40:48;13.70;92.80
27803;DHT22;15182;48.174;11.562;2023-02-19T09:43:21;13.70;92.50
27803;DHT22;15182;48.174;11.562;2023-02-19T09:46:02;13.70;92.40
27803;DHT22;15182;48.174;11.562;2023-02-19T09:48:47;13.70;92.30
27803;DHT22;15182;48.174;11.562;2023-02-19T09:51:18;13.60;92.40
27803;DHT22;15182;48.174;11.562;2023-02-19T09:53:52;13.60;92.40
27803;DHT22;15182;48.174;11.562;2023-02-19T09:56:25;13.60;92.20
27803;DHT22;15182;48.174;11.562;2023-02-19T09:58:59;13.50;92.10
27803;DHT22;15182;48.174;11.562;2023-02-19T10:01:38;13.50;91.90
27803;DHT22;15182;48.174;11.562;2023-02-19T10:04:11;13.50;91.60
27803;DHT22;15182;48.174;11.562;2023-02-19T10:06:44;13.50;91.90
27803;DHT22;15182;48.174;11.562;2023-02-19T10:09:21;13.40;91.80
27803;DHT22;15182;48.174;11.562;2023-02-19T10:11:57;13.50;92.00
27803;DHT22;15182;48.174;11.562;2023-02-19T10:14:32;13.50;92.10
27803;DHT22;15182;48.174;11.562;2023-02-19T10:17:14;13.60;92.20
27803;DHT22;15182;48.174;11.562;2023-02-19T10:19:54;13.70;92.30
27803;DHT22;15182;48.174;11.562;2023-02-19T10:22:26;14.00;92.40
27803;DHT22;15182;48.174;11.562;2023-02-19T10:24:58;14.20;92.20
27803;DHT22;15182;48.174;11.562;2023-02-19T10:27:30;14.40;92.10
27803;DHT22;15182;48.174;11.562;2023-02-19T10:30:02;14.60;91.80
27803;DHT22;15182;48.174;11.562;2023-02-19T10:32:39;14.90;91.40
27803;DHT22;15182;48.174;11.562;2023-02-19T10:35:27;15.10;91.20
27803;DHT22;15182;48.174;11.562;2023-02-19T10:37:59;15.30;91.30
27803;DHT22;15182;48.174;11.562;2023-02-19T10:40:34;15.50;90.90
27803;DHT22;15182;48.174;11.562;2023-02-19T10:43:07;15.70;90.80
27803;DHT22;15182;48.174;11.562;2023-02-19T10:45:52;15.90;90.60
27803;DHT22;15182;48.174;11.562;2023-02-19T10:48:27;16.10;90.10
27803;DHT22;15182;48.174;11.562;2023-02-19T10:51:03;16.30;89.80
27803;DHT22;15182;48.174;11.562;2023-02-19T10:53:40;16.40;89.40
27803;DHT22;15182;48.174;11.562;2023-02-19T10:56:15;16.60;88.90
27803;DHT22;15182;48.174;11.562;2023-02-19T10:58:52;16.70;87.80
27803;DHT22;15182;48.174;11.562;2023-02-19T11:01:24;16.80;87.40
27803;DHT22;15182;48.174;11.562;2023-02-19T11:04:14;16.90;87.70
27803;DHT22;15182;48.174;11.562;2023-02-19T11:06:49;17.10;85.90
27803;DHT22;15182;48.174;11.562;2023-02-19T11:09:25;17.20;85.50
27803;DHT22;15182;48.174;11.562;2023-02-19T11:11:59;17.30;84.60
27803;DHT22;15182;48.174;11.562;2023-02-19T11:14:33;17.40;84.90
27803;DHT22;15182;48.174;11.562;2023-02-19T11:17:05;17.50;84.60
27803;DHT22;15182;48.174;11.562;2023-02-19T11:19:48;17.50;84.20
27803;DHT22;15182;48.174;11.562;2023-02-19T11:22:29;17.50;83.90
27803;DHT22;15182;48.174;11.562;2023-02-19T11:25:05;17.40;83.20
27803;DHT22;15182;48.174;11.562;2023-02-19T11:27:58;17.30;83.10
27803;DHT22;15182;48.174;11.562;2023-02-19T11:30:38;17.30;83.00
27803;DHT22;15182;48.174;11.562;2023-02-19T11:33:27;17.20;83.70
27803;DHT22;15182;48.174;11.562;2023-02-19T11:36:22;17.10;83.40
27803;DHT22;15182;48.174;11.562;2023-02-19T11:38:56;17.10;83.20
27803;DHT22;15182;48.174;11.562;2023-02-19T11:44:58;16.90;83.10
27803;DHT22;15182;48.174;11.562;2023-02-19T11:51:29;16.60;83.70
27803;DHT22;15182;48.174;11.562;2023-02-19T11:54:16;16.40;84.60
27803;DHT22;15182;48.174;11.562;2023-02-19T11:56:58;16.20;84.80
27803;DHT22;15182;48.174;11.562;2023-02-19T11:59:42;16.00;85.30
27803;DHT22;15182;48.174;11.562;2023-02-19T12:02:36;15.90;85.20
27803;DHT22;15182;48.174;11.562;2023-02-19T12:05:21;15.80;85.00
27803;DHT22;15182;48.174;11.562;2023-02-19T12:08:19;15.70;84.10
27803;DHT22;15182;48.174;11.562;2023-02-19T12:11:11;15.60;83.90
27803;DHT22;15182;48.174;11.562;2023-02-19T12:14:05;15.50;84.10
27803;DHT22;15182;48.174;11.562;2023-02-19T12:16:48;15.50;84.10
27803;DHT22;15182;48.174;11.562;2023-02-19T12:19:36;15.40;83.90
27803;DHT22;15182;48.174;11.562;2023-02-19T12:22:23;15.40;83.90
27803;DHT22;15182;48.174;11.562;2023-02-19T12:25:23;15.40;83.80
27803;DHT22;15182;48.174;11.562;2023-02-19T12:28:06;15.40;83.70
27803;DHT22;15182;48.174;11.562;2023-02-19T12:30:52;15.40;84.00
27803;DHT22;15182;48.174;11.562;2023-02-19T12:33:48;15.40;83.90
27803;DHT22;15182;48.174;11.562;2023-02-19T12:36:30;15.30;84.00
27803;DHT22;15182;48.174;11.562;2023-02-19T12:39:15;15.30;84.20
27803;DHT22;15182;48.174;11.562;2023-02-19T12:41:57;15.30;84.30
27803;DHT22;15182;48.174;11.562;2023-02-19T12:44:37;15.30;84.30
27803;DHT22;15182;48.174;11.562;2023-02-19T12:47:18;15.20;84.50
27803;DHT22;15182;48.174;11.562;2023-02-19T12:50:02;15.20;84.70
27803;DHT22;15182;48.174;11.562;2023-02-19T12:52:38;15.10;84.70
27803;DHT22;15182;48.174;11.562;2023-02-19T12:55:21;15.10;84.50
27803;DHT22;15182;48.174;11.562;2023-02-19T12:57:55;15.00;84.00
27803;DHT22;15182;48.174;11.562;2023-02-19T13:00:32;15.00;84.10
27803;DHT22;15182;48.174;11.562;2023-02-19T13:03:13;14.90;83.50
27803;DHT22;15182;48.174;11.562;2023-02-19T13:05:51;14.80;83.20
27803;DHT22;15182;48.174;11.562;2023-02-19T13:08:29;14.80;83.30
27803;DHT22;15182;48.174;11.562;2023-02-19T13:11:08;14.70;83.60
27803;DHT22;15182;48.174;11.562;2023-02-19T13:13:46;14.70;83.40
27803;DHT22;15182;48.174;11.562;2023-02-19T13:16:20;14.70;83.60
27803;DHT22;15182;48.174;11.562;2023-02-19T13:18:55;14.70;83.90
27803;DHT22;15182;48.174;11.562;2023-02-19T13:21:32;14.60;84.00
27803;DHT22;15182;48.174;11.562;2023-02-19T13:24:25;14.60;84.00
27803;DHT22;15182;48.174;11.562;2023-02-19T13:27:23;14.60;84.40
27803;DHT22;15182;48.174;11.562;2023-02-19T13:30:11;14.60;84.40
27803;DHT22;15182;48.174;11.562;2023-02-19T13:32:57;14.60;84.60
27803;DHT22;15182;48.174;11.562;2023-02-19T13:35:56;14.60;84.50
27803;DHT22;15182;48.174;11.562;2023-02-19T13:38:32;14.60;84.80
27803;DHT22;15182;48.174;11.562;2023-02-19T13:41:04;14.60;85.00
27803;DHT22;15182;48.174;11.562;2023-02-19T13:43:36;14.70;84.90
27803;DHT22;15182;48.174;11.562;2023-02-19T13:46:14;14.70;84.90
27803;DHT22;15182;48.174;11.562;2023-02-19T13:48:46;14.80;84.90
27803;DHT22;15182;48.174;11.562;2023-02-19T13:51:37;14.70;84.80
27803;DHT22;15182;48.174;11.562;2023-02-19T13:54:24;14.70;84.60
27803;DHT22;15182;48.174;11.562;2023-02-19T13:57:23;14.70;84.50
27803;DHT22;15182;48.174;11.562;2023-02-19T13:59:56;14.70;84.70
27803;DHT22;15182;48.174;11.562;2023-02-19T14:02:33;14.60;84.80
27803;DHT22;15182;48.174;11.562;2023-02-19T14:05:07;14.60;84.80
27803;DHT22;15182;48.174;11.562;2023-02-19T14:07:53;14.50;84.90
27803;DHT22;15182;48.174;11.562;2023-02-19T14:10:56;14.50;84.90
27803;DHT22;15182;48.174;11.562;2023-02-19T14:14:00;14.50;84.90
27803;DHT22;15182;48.174;11.562;2023-02-19T14:16:57;14.50;84.90
27803;DHT22;15182;48.174;11.562;2023-02-19T14:20:01;14.40;84.50
27803;DHT22;15182;48.174;11.562;2023-02-19T14:23:16;14.40;84.50
27803;DHT22;15182;48.174;11.562;2023-02-19T14:25:50;14.40;84.50
27803;DHT22;15182;48.174;11.562;2023-02-19T14:28:32;14.40;85.00
27803;DHT22;15182;48.174;11.562;2023-02-19T14:31:22;14.30;84.70
27803;DHT22;15182;48.174;11.562;2023-02-19T14:33:57;14.30;84.90
27803;DHT22;15182;48.174;11.562;2023-02-19T14:36:44;14.30;85.00
27803;DHT22;15182;48.174;11.562;2023-02-19T14:39:23;14.30;84.90
27803;DHT22;15182;48.174;11.562;2023-02-19T14:41:59;14.30;85.10
27803;DHT22;15182;48.174;11.562;2023-02-19T14:44:38;14.20;85.20
27803;DHT22;15182;48.174;11.562;2023-02-19T14:47:20;14.20;85.30
27803;DHT22;15182;48.174;11.562;2023-02-19T14:49:56;14.20;85.50
27803;DHT22;15182;48.174;11.562;2023-02-19T14:52:33;14.20;85.80
27803;DHT22;15182;48.174;11.562;2023-02-19T14:55:13;14.20;85.60
27803;DHT22;15182;48.174;11.562;2023-02-19T14:57:50;14.20;85.50
27803;DHT22;15182;48.174;11.562;2023-02-19T15:00:28;14.20;85.60
27803;DHT22;15182;48.174;11.562;2023-02-19T15:03:03;14.20;85.90
27803;DHT22;15182;48.174;11.562;2023-02-19T15:05:35;14.20;85.70
27803;DHT22;15182;48.174;11.562;2023-02-19T15:08:11;14.20;85.70
27803;DHT22;15182;48.174;11.562;2023-02-19T15:10:47;14.20;86.60
27803;DHT22;15182;48.174;11.562;2023-02-19T15:13:24;14.20;85.90
27803;DHT22;15182;48.174;11.562;2023-02-19T15:15:56;14.20;85.70
27803;DHT22;15182;48.174;11.562;2023-02-19T15:18:30;14.20;85.70
27803;DHT22;15182;48.174;11.562;2023-02-19T15:21:06;14.20;85.60
27803;DHT22;15182;48.174;11.562;2023-02-19T15:23:44;14.20;85.70
27803;DHT22;15182;48.174;11.562;2023-02-19T15:26:22;14.20;85.70
27803;DHT22;15182;48.174;11.562;2023-02-19T15:28:59;14.20;85.70
27803;DHT22;15182;48.174;11.562;2023-02-19T15:31:33;14.20;85.80
27803;DHT22;15182;48.174;11.562;2023-02-19T15:34:13;14.10;86.60
27803;DHT22;15182;48.174;11.562;2023-02-19T15:36:43;14.20;85.90
27803;DHT22;15182;48.174;11.562;2023-02-19T15:39:21;14.10;85.80
27803;DHT22;15182;48.174;11.562;2023-02-19T15:41:55;14.10;85.80
27803;DHT22;15182;48.174;11.562;2023-02-19T15:44:37;14.10;85.90
27803;DHT22;15182;48.174;11.562;2023-02-19T15:47:14;14.10;85.80
27803;DHT22;15182;48.174;11.562;2023-02-19T15:49:52;14.10;86.10
27803;DHT22;15182;48.174;11.562;2023-02-19T15:52:34;14.10;85.90
27803;DHT22;15182;48.174;11.562;2023-02-19T15:55:18;14.10;86.80
27803;DHT22;15182;48.174;11.562;2023-02-19T15:57:56;14.00;86.00
27803;DHT22;15182;48.174;11.562;2023-02-19T16:00:36;14.00;86.10
27803;DHT22;15182;48.174;11.562;2023-02-19T16:03:15;14.00;85.80
27803;DHT22;15182;48.174;11.562;2023-02-19T16:05:57;14.00;85.80
27803;DHT22;15182;48.174;11.562;2023-02-19T16:08:32;13.90;85.80
27803;DHT22;15182;48.174;11.562;2023-02-19T16:11:23;13.90;85.80
27803;DHT22;15182;48.174;11.562;2023-02-19T16:14:16;13.90;85.80
27803;DHT22;15182;48.174;11.562;2023-02-19T16:17:13;13.80;85.70
27803;DHT22;15182;48.174;11.562;2023-02-19T16:19:52;13.80;85.80
27803;DHT22;15182;48.174;11.562;2023-02-19T16:22:29;13.80;85.80
27803;DHT22;15182;48.174;11.562;2023-02-19T16:25:04;13.80;85.70